Time;durP1;ratioP1;P1;durP2;ratioP2;P2;SDS_P1;SDS_P2;PMS_P1;PMS_P2;Temp;Humidity;BMP_temperature;BMP_pressure;BME280_temperature;BME280_humidity;BME280_pressure;Samples;Min_cycle;Max_cycle;Signal;HPM_P1;HPM_P2
2023/06/10 00:01:24;;;;;;;9.23;5.28;;;;;;;16.71;59.54;98850.53;5065396;28;20028;-86
2023/06/10 00:03:51;;;;;;;10.10;4.60;;;;;;;16.61;59.50;98837.28;5052337;28;20029;-86
2023/06/10 00:06:17;;;;;;;9.35;4.15;;;;;;;16.69;59.29;98848.13;5058768;28;20514;-86
2023/06/10 00:08:42;;;;;;;11.90;4.43;;;;;;;16.79;58.84;98857.88;5042043;28;20070;-86
2023/06/10 00:11:08;;;;;;;6.10;4.35;;;;;;;16.72;60.09;98857.56;5026860;28;20090;-87
2023/06/10 00:13:33;;;;;;;7.22;4.18;;;;;;;16.62;60.15;98839.69;5026498;28;20021;-86
2023/06/10 00:15:59;;;;;;;6.68;4.13;;;;;;;16.61;60.38;98845.44;5025844;28;20047;-86
2023/06/10 00:18:26;;;;;;;8.90;4.55;;;;;;;16.50;59.64;98834.88;5035440;28;20032;-85
2023/06/10 00:20:54;;;;;;;8.13;4.50;;;;;;;16.46;59.98;98839.38;5058642;28;20527;-87
2023/06/10 00:23:21;;;;;;;7.65;4.15;;;;;;;16.40;60.22;98829.78;5026717;28;20021;-86
2023/06/10 00:25:47;;;;;;;7.40;4.30;;;;;;;16.34;60.99;98837.28;5042200;28;20025;-87
2023/06/10 00:28:13;;;;;;;9.60;4.97;;;;;;;16.29;61.59;98833.91;5042369;28;20024;-85
2023/06/10 00:30:38;;;;;;;8.88;4.75;;;;;;;16.30;61.15;98835.53;5025981;28;20024;-87
2023/06/10 00:33:04;;;;;;;7.22;4.10;;;;;;;16.33;60.67;98845.75;5027137;28;20024;-87
2023/06/10 00:35:30;;;;;;;9.25;4.30;;;;;;;16.40;60.90;98853.44;5038907;28;20024;-86
2023/06/10 00:37:55;;;;;;;6.75;3.97;;;;;;;16.32;60.44;98834.09;5039108;28;20604;-86
2023/06/10 00:40:20;;;;;;;6.68;4.50;;;;;;;16.29;61.59;98842.06;5055012;28;20501;-86
2023/06/10 00:42:46;;;;;;;5.88;3.92;;;;;;;16.29;61.57;98842.06;5041299;28;20024;-86
2023/06/10 00:45:11;;;;;;;8.13;3.83;;;;;;;16.22;61.96;98839.84;5041744;28;20032;-86
2023/06/10 00:47:37;;;;;;;5.70;4.25;;;;;;;16.22;62.10;98847.97;5024891;28;20028;-85
2023/06/10 00:50:03;;;;;;;8.95;3.80;;;;;;;16.12;62.46;98840.97;5025061;28;20021;-86
2023/06/10 00:52:29;;;;;;;12.43;4.00;;;;;;;16.15;61.93;98853.09;5042371;28;20031;-86
2023/06/10 00:54:55;;;;;;;7.93;3.83;;;;;;;16.07;62.03;98848.47;5025352;28;20081;-86
2023/06/10 00:57:20;;;;;;;8.23;4.18;;;;;;;16.08;61.61;98848.16;5025380;28;20025;-86
2023/06/10 00:59:47;;;;;;;7.88;3.78;;;;;;;16.11;61.74;98855.66;5060371;28;20485;-86
2023/06/10 01:02:13;;;;;;;7.03;3.80;;;;;;;16.07;61.38;98854.69;5058094;28;20467;-85
2023/06/10 01:04:39;;;;;;;6.20;3.40;;;;;;;16.04;61.75;98846.38;5041630;28;20017;-86
2023/06/10 01:07:10;;;;;;;7.00;3.65;;;;;;;16.08;61.88;98859.00;5041828;28;20120;-86
2023/06/10 01:09:42;;;;;;;4.47;3.10;;;;;;;16.01;62.58;98857.88;5057800;28;20028;-86
2023/06/10 01:12:11;;;;;;;6.22;3.72;;;;;;;16.04;62.54;98870.81;5025690;28;20025;-86
2023/06/10 01:14:36;;;;;;;7.15;3.97;;;;;;;15.93;62.67;98852.09;5094556;28;20016;-86
2023/06/10 01:17:03;;;;;;;6.68;3.92;;;;;;;15.89;63.14;98853.84;5040775;28;20050;-86
2023/06/10 01:19:30;;;;;;;8.07;4.07;;;;;;;15.82;63.28;98860.88;5025239;28;20021;-86
2023/06/10 01:22:00;;;;;;;8.38;3.88;;;;;;;15.85;62.99;98865.66;5041080;28;20024;-85
2023/06/10 01:24:32;;;;;;;8.23;4.45;;;;;;;15.83;63.32;98867.88;5073946;28;20375;-86
2023/06/10 01:26:57;;;;;;;;;;;;;;;15.78;63.31;98866.13;5033905;28;20402;-86
2023/06/10 01:29:33;;;;;;;6.97;4.07;;;;;;;15.72;64.32;98868.19;5054850;28;19913;-86
2023/06/10 01:32:03;;;;;;;6.47;4.32;;;;;;;15.70;63.77;98873.09;5064533;28;20024;-86
2023/06/10 01:34:29;;;;;;;9.63;4.05;;;;;;;15.62;64.83;98862.22;5041263;28;20528;-86
2023/06/10 01:36:55;;;;;;;9.48;4.75;;;;;;;15.44;65.43;98854.03;5024237;28;20066;-86
2023/06/10 01:39:23;;;;;;;7.10;3.90;;;;;;;15.48;64.99;98860.41;5024703;28;20482;-86
2023/06/10 01:41:49;;;;;;;12.23;4.22;;;;;;;15.35;65.42;98862.09;5025346;28;20028;-86
2023/06/10 01:44:20;;;;;;;8.25;4.63;;;;;;;15.33;65.51;98867.03;5023952;28;20398;-87
2023/06/10 01:46:46;;;;;;;7.78;4.88;;;;;;;15.30;64.84;98858.75;5041566;28;20028;-85
2023/06/10 01:49:11;;;;;;;11.45;4.85;;;;;;;15.34;64.51;98860.50;5023875;28;20509;-86
2023/06/10 01:51:37;;;;;;;6.85;4.43;;;;;;;15.28;65.08;98844.69;5023968;28;20023;-86
2023/06/10 01:54:03;;;;;;;7.55;4.32;;;;;;;15.35;65.10;98855.88;5023744;28;20024;-86
2023/06/10 01:56:28;;;;;;;7.03;4.65;;;;;;;15.22;65.46;98851.38;5023512;28;20020;-85
2023/06/10 01:58:58;;;;;;;12.93;5.15;;;;;;;15.25;65.15;98854.25;5039851;28;20031;-86
2023/06/10 02:01:24;;;;;;;8.77;5.07;;;;;;;15.19;66.31;98866.38;5030517;28;20024;-86
2023/06/10 02:03:50;;;;;;;8.65;5.35;;;;;;;15.16;66.53;98856.13;5023862;28;20089;-86
2023/06/10 02:06:15;;;;;;;12.57;5.97;;;;;;;15.15;66.27;98862.66;5036892;28;20051;-86
2023/06/10 02:08:40;;;;;;;11.02;6.25;;;;;;;15.11;66.51;98856.25;5044125;28;20383;-86
2023/06/10 02:11:07;;;;;;;11.13;6.63;;;;;;;15.15;66.62;98862.66;5044168;28;20024;-86
2023/06/10 02:13:32;;;;;;;9.02;5.30;;;;;;;15.15;66.56;98874.31;5057477;28;20024;-86
2023/06/10 02:15:58;;;;;;;10.05;5.55;;;;;;;15.06;67.33;98862.59;5042124;28;20031;-85
2023/06/10 02:18:23;;;;;;;12.27;5.65;;;;;;;15.11;67.08;98867.13;5045734;28;20028;-85
2023/06/10 02:20:49;;;;;;;8.35;5.22;;;;;;;15.15;67.27;98879.72;5025041;28;20021;-85
2023/06/10 02:23:14;;;;;;;10.38;5.15;;;;;;;15.10;66.82;98871.72;5024920;28;20547;-86
2023/06/10 02:25:40;;;;;;;8.90;5.30;;;;;;;15.09;66.82;98872.84;5023949;28;20017;-86
2023/06/10 02:28:05;;;;;;;10.73;5.18;;;;;;;15.06;67.34;98867.22;5023813;28;20037;-86
2023/06/10 02:30:31;;;;;;;7.65;4.88;;;;;;;14.97;67.54;98866.38;5040213;28;20101;-86
2023/06/10 02:32:57;;;;;;;10.52;4.95;;;;;;;14.92;67.55;98868.13;5040078;28;20062;-86
2023/06/10 02:35:23;;;;;;;7.88;4.88;;;;;;;15.00;67.21;98876.59;5022862;28;20029;-86
2023/06/10 02:37:50;;;;;;;9.00;4.25;;;;;;;14.93;67.30;98877.84;5024470;28;20053;-86
2023/06/10 02:40:15;;;;;;;9.13;4.70;;;;;;;14.87;67.30;98868.22;5025124;28;20024;-86
2023/06/10 02:42:41;;;;;;;10.20;4.95;;;;;;;14.88;67.98;98886.13;5028006;28;20021;-86
2023/06/10 02:45:07;;;;;;;8.18;5.00;;;;;;;14.92;67.22;98876.25;5027512;28;20028;-86
2023/06/10 02:47:32;;;;;;;7.82;4.65;;;;;;;14.87;67.25;98872.84;5027647;28;20032;-86
2023/06/10 02:49:58;;;;;;;8.63;4.53;;;;;;;14.80;67.05;98878.72;5032864;28;20005;-86
2023/06/10 02:52:23;;;;;;;8.07;4.70;;;;;;;14.87;67.09;98881.78;5063050;28;20498;-86
2023/06/10 02:54:49;;;;;;;7.90;5.03;;;;;;;14.94;67.30;98897.59;5043448;28;20044;-86
2023/06/10 02:57:15;;;;;;;9.18;5.63;;;;;;;14.93;67.26;98891.41;5053326;28;20051;-86
2023/06/10 02:59:40;;;;;;;10.55;5.03;;;;;;;14.92;67.47;98887.09;5060773;28;20028;-86
2023/06/10 03:02:06;;;;;;;11.80;5.63;;;;;;;15.01;66.93;98889.84;5060787;28;20402;-86
2023/06/10 03:04:31;;;;;;;8.02;5.55;;;;;;;15.03;67.33;98894.97;5060018;28;20028;-86
2023/06/10 03:07:00;;;;;;;13.57;5.78;;;;;;;15.16;67.11;98903.00;5044350;28;20131;-86
2023/06/10 03:09:25;;;;;;;12.98;5.75;;;;;;;15.07;67.35;98894.03;5044720;28;20040;-86
2023/06/10 03:11:51;;;;;;;8.73;5.10;;;;;;;15.02;67.26;98877.88;5043508;28;20036;-85
2023/06/10 03:14:16;;;;;;;8.77;5.05;;;;;;;15.18;67.09;98896.50;5043212;28;20028;-86
2023/06/10 03:16:42;;;;;;;11.35;5.85;;;;;;;15.16;66.39;98886.75;5052522;28;20126;-86
2023/06/10 03:19:08;;;;;;;8.40;5.70;;;;;;;15.29;65.26;98895.09;5043975;28;20031;-85
2023/06/10 03:21:34;;;;;;;8.20;5.18;;;;;;;15.35;65.11;98891.16;5042980;28;20060;-86
2023/06/10 03:24:00;;;;;;;10.65;5.70;;;;;;;15.43;64.79;98898.53;5043014;28;20379;-85
2023/06/10 03:26:27;;;;;;;6.57;4.43;;;;;;;15.51;64.47;98886.91;5044114;28;20036;-86
2023/06/10 03:28:52;;;;;;;11.93;4.43;;;;;;;15.68;65.11;98891.59;5043208;28;20020;-86
2023/06/10 03:31:18;;;;;;;6.40;4.10;;;;;;;15.68;65.04;98882.66;5042943;28;20059;-86
2023/06/10 03:33:43;;;;;;;7.68;4.35;;;;;;;15.72;65.08;98894.53;5042740;28;20024;-86
2023/06/10 03:36:09;;;;;;;7.43;4.15;;;;;;;15.88;64.07;98900.34;5037727;28;20027;-86
2023/06/10 03:38:35;;;;;;;8.68;4.80;;;;;;;15.91;63.03;98884.19;5057407;28;20021;-87
2023/06/10 03:41:01;;;;;;;12.07;4.60;;;;;;;16.14;62.85;98901.22;5038947;28;20052;-86
2023/06/10 03:43:27;;;;;;;8.07;4.30;;;;;;;16.14;62.32;98893.06;5035950;28;20025;-85
2023/06/10 03:45:53;;;;;;;16.70;4.63;;;;;;;16.25;62.55;98893.53;5073691;28;20493;-86
2023/06/10 03:48:18;;;;;;;7.13;4.30;;;;;;;16.27;62.12;98901.34;5042258;28;20037;-85
2023/06/10 03:50:44;;;;;;;13.63;4.72;;;;;;;16.24;62.00;98897.38;5032821;28;20027;-86
2023/06/10 03:53:09;;;;;;;8.88;5.22;;;;;;;16.27;61.28;98898.63;5056099;28;20036;-85
2023/06/10 03:55:36;;;;;;;8.88;4.85;;;;;;;16.40;61.46;98888.75;5042344;28;20421;-85
2023/06/10 03:58:01;;;;;;;9.25;4.72;;;;;;;16.38;61.88;98891.00;5042732;28;20078;-85
2023/06/10 04:00:27;;;;;;;8.30;5.05;;;;;;;16.46;61.73;98892.94;5042826;28;20017;-86
2023/06/10 04:02:52;;;;;;;9.82;5.68;;;;;;;16.52;61.68;98894.38;5075126;28;20031;-86
2023/06/10 04:05:18;;;;;;;10.57;4.80;;;;;;;16.59;61.05;98893.88;5043323;28;20028;-86
2023/06/10 04:07:44;;;;;;;11.05;5.20;;;;;;;16.68;61.67;98897.38;5062405;28;20024;-87
2023/06/10 04:10:12;;;;;;;13.23;5.38;;;;;;;16.71;61.57;98900.28;5060526;28;20028;-87
2023/06/10 04:12:38;;;;;;;11.13;5.38;;;;;;;16.85;61.52;98891.97;5060824;28;20031;-86
2023/06/10 04:15:04;;;;;;;11.80;5.78;;;;;;;16.85;60.56;98891.16;5060229;28;20032;-86
2023/06/10 04:17:30;;;;;;;9.52;5.50;;;;;;;16.95;60.14;98897.09;5058451;28;20162;-86
2023/06/10 04:19:55;;;;;;;10.02;6.03;;;;;;;16.99;60.28;98899.94;5045950;28;20027;-86
2023/06/10 04:22:21;;;;;;;10.23;6.68;;;;;;;17.17;60.06;98896.06;5062519;28;20123;-86
2023/06/10 04:24:46;;;;;;;11.20;6.85;;;;;;;17.34;58.87;98895.22;5045446;28;20478;-86
2023/06/10 04:27:12;;;;;;;10.88;6.53;;;;;;;17.33;59.47;98887.41;5046131;28;20119;-86
2023/06/10 04:29:37;;;;;;;11.48;6.97;;;;;;;17.36;59.09;98884.00;5062184;28;20047;-87
2023/06/10 04:32:05;;;;;;;12.35;7.60;;;;;;;17.43;59.30;98884.31;5046090;28;20004;-85
2023/06/10 04:34:30;;;;;;;14.15;7.25;;;;;;;17.61;58.59;98890.47;5062645;28;20016;-85
2023/06/10 04:36:56;;;;;;;19.48;9.27;;;;;;;17.68;58.42;98888.06;5058178;28;20020;-86
2023/06/10 04:39:22;;;;;;;13.90;8.48;;;;;;;17.62;59.31;98880.38;5058256;28;20031;-86
2023/06/10 04:41:47;;;;;;;20.52;10.60;;;;;;;17.84;58.56;98885.59;5061812;28;20031;-86
2023/06/10 04:44:13;;;;;;;17.67;9.20;;;;;;;17.92;58.36;98892.91;5041878;28;20020;-86
2023/06/10 04:46:39;;;;;;;16.63;8.55;;;;;;;17.97;57.97;98881.03;5043453;28;20050;-86
2023/06/10 04:49:05;;;;;;;15.68;8.80;;;;;;;18.32;56.88;98897.97;5058502;28;20111;-86
2023/06/10 04:51:31;;;;;;;15.40;8.85;;;;;;;18.48;56.59;98892.72;5061618;28;20097;-86
2023/06/10 04:53:57;;;;;;;16.38;9.35;;;;;;;18.57;56.79;98892.63;5062053;28;20016;-87
2023/06/10 04:56:22;;;;;;;17.98;10.20;;;;;;;18.47;56.88;98884.84;5061210;28;20035;-86
2023/06/10 04:58:48;;;;;;;22.77;10.20;;;;;;;18.53;56.91;98883.53;5061100;28;20016;-87
2023/06/10 05:01:13;;;;;;;19.10;11.13;;;;;;;18.69;56.27;98887.25;5061802;28;20017;-86
2023/06/10 05:03:39;;;;;;;16.30;9.80;;;;;;;18.73;56.22;98890.88;5060730;28;20027;-86
2023/06/10 05:06:04;;;;;;;15.18;9.63;;;;;;;18.75;56.04;98890.56;5060726;28;20094;-86
2023/06/10 05:08:30;;;;;;;16.67;9.70;;;;;;;18.91;56.25;98890.78;5045098;28;20027;-87
2023/06/10 05:10:55;;;;;;;14.95;9.20;;;;;;;18.88;55.93;98892.22;5041391;28;20084;-87
2023/06/10 05:13:21;;;;;;;13.73;10.35;;;;;;;18.96;55.85;98894.06;5060618;28;20020;-87
2023/06/10 05:15:46;;;;;;;18.13;10.77;;;;;;;19.14;55.57;98904.84;5060197;28;20024;-86
2023/06/10 05:18:12;;;;;;;15.60;10.73;;;;;;;19.11;55.64;98892.66;5041558;28;20101;-87
2023/06/10 05:20:38;;;;;;;17.63;9.88;;;;;;;19.21;55.22;98901.53;5040991;28;20051;-87
2023/06/10 05:23:03;;;;;;;13.50;9.77;;;;;;;19.14;54.97;98891.97;5040723;28;20057;-87
2023/06/10 05:25:32;;;;;;;14.65;10.13;;;;;;;19.10;55.80;98893.78;5026025;28;20012;-86
2023/06/10 05:27:58;;;;;;;16.42;11.32;;;;;;;19.01;55.55;98889.53;5041592;28;20029;-86
2023/06/10 05:30:25;;;;;;;16.08;11.27;;;;;;;19.10;55.78;98895.72;5046133;28;20024;-87
2023/06/10 05:32:51;;;;;;;16.55;12.32;;;;;;;19.03;55.77;98884.53;5052158;28;20526;-87
2023/06/10 05:35:16;;;;;;;22.88;11.35;;;;;;;19.03;55.95;98874.44;5046866;28;20054;-87
2023/06/10 05:37:42;;;;;;;14.85;10.52;;;;;;;19.43;54.86;98889.44;5054930;28;20024;-86
2023/06/10 05:40:08;;;;;;;15.45;9.95;;;;;;;19.45;54.48;98885.22;5045051;28;20046;-86
2023/06/10 05:42:34;;;;;;;16.05;9.35;;;;;;;19.61;54.69;98888.09;5072846;28;20082;-87
2023/06/10 05:44:59;;;;;;;13.82;9.13;;;;;;;19.75;54.04;98879.56;5041391;28;20032;-87
2023/06/10 05:47:25;;;;;;;11.32;8.45;;;;;;;19.93;53.78;98883.66;5076654;28;20524;-87
2023/06/10 05:49:51;;;;;;;15.40;8.88;;;;;;;20.18;53.17;98891.84;5037627;28;20093;-87
2023/06/10 05:52:17;;;;;;;16.80;9.30;;;;;;;20.30;52.67;98893.75;5041800;28;20024;-88
2023/06/10 05:54:44;;;;;;;21.92;9.73;;;;;;;20.21;52.53;98891.13;5064833;28;20051;-88
2023/06/10 05:57:10;;;;;;;14.82;10.40;;;;;;;20.65;52.73;98894.03;5062547;28;20024;-88
2023/06/10 05:59:35;;;;;;;19.33;11.40;;;;;;;20.68;52.50;98887.06;5061565;28;20028;-87
2023/06/10 06:02:01;;;;;;;16.30;11.52;;;;;;;20.87;51.79;98894.63;5061599;28;20031;-86
2023/06/10 06:04:26;;;;;;;15.90;10.07;;;;;;;20.87;51.06;98886.41;5043456;28;20093;-88
2023/06/10 06:06:52;;;;;;;15.40;9.45;;;;;;;21.19;50.45;98899.03;5059848;28;20043;-86
2023/06/10 06:09:17;;;;;;;19.75;8.73;;;;;;;21.32;51.01;98896.22;5061062;28;20039;-86
2023/06/10 06:11:43;;;;;;;11.10;7.45;;;;;;;21.41;50.60;98894.09;5044634;28;20004;-88
2023/06/10 06:14:08;;;;;;;13.95;7.80;;;;;;;21.61;50.44;98902.44;5058202;28;20024;-87
2023/06/10 06:16:34;;;;;;;13.15;7.35;;;;;;;21.71;49.83;98899.19;5040497;28;20418;-89
2023/06/10 06:18:59;;;;;;;14.43;7.43;;;;;;;21.66;49.82;98888.47;5065312;28;20479;-87
2023/06/10 06:21:25;;;;;;;10.10;6.40;;;;;;;21.92;48.98;98885.19;5041052;28;20125;-88
2023/06/10 06:23:50;;;;;;;14.13;6.90;;;;;;;21.97;49.00;98898.59;5057312;28;20502;-88
2023/06/10 06:26:16;;;;;;;9.63;6.55;;;;;;;21.81;50.25;98887.69;5040158;28;20024;-86
2023/06/10 06:28:41;;;;;;;8.55;5.65;;;;;;;21.86;49.66;98881.13;5072880;28;20016;-86
2023/06/10 06:31:07;;;;;;;6.95;3.33;;;;;;;21.87;48.92;98889.00;5040767;28;20019;-86
2023/06/10 06:33:32;;;;;;;10.32;3.80;;;;;;;22.12;48.33;98896.97;5074404;28;20107;-87
2023/06/10 06:36:00;;;;;;;5.53;3.20;;;;;;;22.28;48.02;98892.28;5057896;28;20021;-87
2023/06/10 06:38:25;;;;;;;5.80;2.88;;;;;;;22.29;47.78;98887.59;5056634;28;20020;-87
2023/06/10 06:40:51;;;;;;;6.32;3.08;;;;;;;22.18;47.98;98896.34;5040843;28;20031;-87
2023/06/10 06:43:18;;;;;;;7.55;2.78;;;;;;;22.28;47.75;98889.53;5075511;28;20102;-87
2023/06/10 06:45:44;;;;;;;6.13;2.88;;;;;;;22.21;48.57;98892.09;5042208;28;20024;-88
2023/06/10 06:48:10;;;;;;;6.43;3.20;;;;;;;22.20;48.37;98885.00;5045036;28;20028;-85
2023/06/10 06:50:36;;;;;;;4.60;2.70;;;;;;;22.21;48.90;98883.88;5054902;28;20023;-87
2023/06/10 06:53:02;;;;;;;9.68;3.00;;;;;;;22.19;48.46;98878.75;5071891;28;20024;-87
2023/06/10 06:55:27;;;;;;;12.93;4.00;;;;;;;22.26;49.06;98880.88;5026487;28;20021;-87
2023/06/10 06:57:53;;;;;;;7.53;3.08;;;;;;;22.42;48.23;98883.56;5026081;28;20082;-86
2023/06/10 07:00:18;;;;;;;4.68;3.00;;;;;;;22.23;49.39;98876.13;5042939;28;20040;-86
2023/06/10 07:02:59;;;;;;;10.55;4.47;;;;;;;22.10;49.93;98886.38;5061195;28;20027;-86
2023/06/10 07:05:34;;;;;;;11.47;4.63;;;;;;;22.08;50.25;98872.22;5042132;28;20025;-86
2023/06/10 07:08:07;;;;;;;9.38;4.32;;;;;;;22.06;51.25;98879.22;5024265;28;20814;-87
2023/06/10 07:10:33;;;;;;;8.80;4.72;;;;;;;21.93;52.72;98865.63;5042209;28;20039;-86
2023/06/10 07:12:58;;;;;;;11.93;4.35;;;;;;;22.19;53.18;98889.72;5042726;28;20032;-89
2023/06/10 07:15:24;;;;;;;7.90;3.85;;;;;;;22.25;55.21;98889.47;5041409;28;20029;-88
2023/06/10 07:17:49;;;;;;;8.13;3.47;;;;;;;22.23;54.65;98884.34;5040783;28;20029;-89
2023/06/10 07:20:15;;;;;;;5.82;3.63;;;;;;;22.17;56.79;98897.50;5026990;28;20029;-86
2023/06/10 07:22:41;;;;;;;4.32;3.22;;;;;;;22.32;55.03;98898.63;5027917;28;20047;-87
2023/06/10 07:25:09;;;;;;;6.55;3.47;;;;;;;22.54;54.15;98888.13;5024230;28;20032;-86
2023/06/10 07:27:38;;;;;;;6.85;4.22;;;;;;;22.71;55.77;98887.69;5062724;28;20028;-86
2023/06/10 07:30:15;;;;;;;6.53;3.65;;;;;;;22.84;54.75;98898.53;5045417;28;20048;-88
2023/06/10 07:32:41;;;;;;;5.70;3.45;;;;;;;22.97;52.76;98899.94;5074547;28;20055;-86
2023/06/10 07:35:08;;;;;;;6.13;3.40;;;;;;;22.90;52.97;98875.91;5049818;28;20085;-87
2023/06/10 07:37:34;;;;;;;5.57;3.30;;;;;;;22.96;52.78;98893.66;5032105;28;20035;-88
2023/06/10 07:40:10;;;;;;;6.93;3.10;;;;;;;22.96;53.23;98896.41;5046044;28;20032;-86
2023/06/10 07:46:35;;;;;;;5.95;3.00;;;;;;;22.64;55.23;98865.59;4982586;28;20034;-89
2023/06/10 07:49:00;;;;;;;6.90;3.35;;;;;;;22.88;53.23;98883.69;4952577;28;20042;-88
2023/06/10 07:51:26;;;;;;;7.60;3.55;;;;;;;22.88;52.35;98886.44;5036800;28;20028;-90
2023/06/10 07:53:51;;;;;;;4.85;3.13;;;;;;;23.05;52.19;98889.94;5031154;28;20063;-88
2023/06/10 07:56:16;;;;;;;6.47;3.25;;;;;;;23.06;52.92;98889.56;5033003;28;20020;-88
2023/06/10 07:58:42;;;;;;;7.80;3.95;;;;;;;23.24;51.35;98889.88;5034014;28;20028;-88
2023/06/10 08:01:08;;;;;;;5.35;2.90;;;;;;;23.30;51.01;98893.13;5032079;28;20037;-89
2023/06/10 08:03:34;;;;;;;6.28;3.05;;;;;;;23.40;50.14;98881.53;5033325;28;20558;-88
2023/06/10 08:05:59;;;;;;;5.85;3.28;;;;;;;23.63;50.08;98892.50;5030483;28;20048;-90
2023/06/10 08:08:25;;;;;;;6.38;2.80;;;;;;;23.72;49.51;98890.31;5031632;28;20017;-89
2023/06/10 08:10:51;;;;;;;7.90;3.40;;;;;;;23.76;49.53;98876.59;5048534;28;20012;-89
2023/06/10 08:13:16;;;;;;;5.32;2.97;;;;;;;23.83;49.55;98893.25;5048138;28;20034;-89
2023/06/10 08:15:47;;;;;;;4.93;3.05;;;;;;;23.92;48.50;98884.75;5048455;28;20025;-87
2023/06/10 08:18:13;;;;;;;5.18;2.75;;;;;;;23.95;48.47;98870.28;5035068;28;20020;-88
2023/06/10 08:20:38;;;;;;;9.45;3.65;;;;;;;24.14;47.98;98883.09;5051269;28;20029;-88
2023/06/10 08:23:04;;;;;;;4.40;3.10;;;;;;;24.12;48.16;98863.44;5050070;28;20053;-91
2023/06/10 08:25:29;;;;;;;5.72;3.55;;;;;;;23.90;48.92;98870.56;5049064;28;20024;-88
2023/06/10 08:27:56;;;;;;;4.70;3.22;;;;;;;24.10;47.73;98874.00;5047038;28;20574;-89
2023/06/10 08:30:22;;;;;;;4.93;2.97;;;;;;;24.19;47.79;98875.31;5060358;28;20028;-90
2023/06/10 08:32:48;;;;;;;5.55;3.28;;;;;;;24.29;47.76;98856.56;5045799;28;20025;-90
2023/06/10 08:35:13;;;;;;;8.10;3.53;;;;;;;24.24;47.96;98859.63;5043900;28;20052;-90
2023/06/10 08:37:39;;;;;;;7.93;3.30;;;;;;;24.46;48.03;98856.00;5045662;28;20093;-88
2023/06/10 08:40:05;;;;;;;4.40;2.72;;;;;;;24.61;47.38;98873.50;5044521;28;20025;-89
2023/06/10 08:42:39;;;;;;;6.97;3.58;;;;;;;24.53;47.94;98869.09;5044299;28;20020;-89
2023/06/10 08:45:06;;;;;;;11.02;3.38;;;;;;;24.43;48.34;98870.53;5044612;28;20048;-88
2023/06/10 08:47:31;;;;;;;4.35;2.70;;;;;;;24.71;47.62;98866.56;5045351;28;20024;-88
2023/06/10 08:50:02;;;;;;;7.05;3.30;;;;;;;24.85;46.74;98865.94;5043864;28;20513;-88
2023/06/10 08:52:28;;;;;;;3.92;2.78;;;;;;;24.92;47.04;98869.56;5044915;28;20099;-88
2023/06/10 08:54:57;;;;;;;4.55;2.80;;;;;;;24.89;46.71;98864.78;5045813;28;20033;-89
2023/06/10 08:57:27;;;;;;;9.57;3.65;;;;;;;24.76;47.96;98860.72;5044472;28;20032;-88
2023/06/10 08:59:54;;;;;;;6.40;3.13;;;;;;;24.92;46.75;98877.00;5059866;28;20027;-88
2023/06/10 09:02:20;;;;;;;6.80;3.20;;;;;;;24.74;48.26;98871.31;5070732;28;20043;-90
2023/06/10 09:04:46;;;;;;;6.47;3.50;;;;;;;24.68;48.90;98870.84;5045024;28;20024;-89
2023/06/10 09:07:14;;;;;;;5.68;2.97;;;;;;;24.62;49.39;98868.81;5053240;28;20048;-92
2023/06/10 09:09:39;;;;;;;5.63;3.70;;;;;;;24.59;49.10;98851.88;5067496;28;20012;-90
2023/06/10 09:12:13;;;;;;;7.85;2.90;;;;;;;24.81;47.29;98858.41;5049678;28;20028;-90
2023/06/10 09:14:38;;;;;;;3.70;2.95;;;;;;;24.72;47.11;98846.91;5049761;28;20031;-91
2023/06/10 09:17:05;;;;;;;5.32;3.00;;;;;;;24.74;47.76;98857.56;5050413;28;20125;-89
2023/06/10 09:19:31;;;;;;;4.97;3.03;;;;;;;24.71;47.50;98850.03;5049494;28;20031;-89
2023/06/10 09:21:56;;;;;;;5.68;3.15;;;;;;;24.81;48.12;98863.91;5049766;28;20059;-90
2023/06/10 09:24:22;;;;;;;5.82;2.92;;;;;;;24.99;47.47;98858.59;5047798;28;20036;-90
2023/06/10 09:26:48;;;;;;;4.88;3.00;;;;;;;24.97;47.34;98854.66;5062837;28;20035;-91
2023/06/10 09:29:13;;;;;;;7.05;4.30;;;;;;;24.93;49.02;98857.34;5046241;28;20472;-90
2023/06/10 09:31:41;;;;;;;5.35;2.92;;;;;;;25.05;47.56;98844.47;5033994;28;20027;-90
2023/06/10 09:34:07;;;;;;;11.05;3.15;;;;;;;25.18;47.69;98840.28;5032686;28;20062;-90
2023/06/10 09:36:34;;;;;;;5.40;3.20;;;;;;;25.43;47.63;98835.03;5047244;28;20123;-90
2023/06/10 09:38:59;;;;;;;4.30;3.15;;;;;;;25.27;47.10;98845.50;5031514;28;20024;-90
2023/06/10 09:41:33;;;;;;;5.25;3.22;;;;;;;25.30;47.37;98842.00;5030228;28;20475;-88
2023/06/10 09:43:58;;;;;;;5.18;3.20;;;;;;;25.71;46.97;98844.66;5037093;28;20028;-89
2023/06/10 09:46:24;;;;;;;6.57;4.10;;;;;;;25.98;45.92;98837.00;5048139;28;20035;-90
2023/06/10 09:48:49;;;;;;;7.25;3.15;;;;;;;25.90;46.46;98830.66;5063433;28;20031;-89
2023/06/10 09:51:16;;;;;;;4.75;3.13;;;;;;;25.95;46.40;98832.25;5047356;28;20428;-89
2023/06/10 09:53:43;;;;;;;9.85;3.42;;;;;;;26.17;45.17;98831.19;5053386;28;20028;-89
2023/06/10 09:56:09;;;;;;;7.68;3.72;;;;;;;25.90;45.68;98827.91;5067199;28;20023;-90
2023/06/10 09:58:38;;;;;;;5.22;3.58;;;;;;;25.87;45.85;98825.88;5047587;28;20020;-89
2023/06/10 10:01:09;;;;;;;4.72;2.80;;;;;;;26.17;45.62;98813.88;5049128;28;20078;-92
2023/06/10 10:03:39;;;;;;;8.32;3.58;;;;;;;26.21;46.26;98820.97;5050977;28;20024;-90
2023/06/10 10:06:05;;;;;;;5.22;3.63;;;;;;;26.07;45.87;98823.66;5046285;28;20047;-90
2023/06/10 10:08:34;;;;;;;5.32;3.30;;;;;;;26.21;45.47;98818.22;5052775;28;20029;-89
2023/06/10 10:11:01;;;;;;;7.90;3.60;;;;;;;26.14;45.49;98809.88;5068147;28;20057;-91
2023/06/10 10:13:27;;;;;;;8.05;3.70;;;;;;;26.37;46.36;98798.53;5050313;28;20138;-92
2023/06/10 10:15:52;;;;;;;7.63;3.60;;;;;;;26.41;45.85;98804.88;5046044;28;20048;-93
2023/06/10 10:18:18;;;;;;;4.38;3.35;;;;;;;26.60;45.63;98808.50;5029446;28;20021;-92
2023/06/10 10:20:46;;;;;;;6.63;3.58;;;;;;;26.76;44.08;98814.47;5028720;28;20044;-92
2023/06/10 10:26:43;;;;;;;4.60;2.90;;;;;;;26.64;40.92;98806.56;5037797;28;20028;-92
2023/06/10 10:32:39;;;;;;;4.22;2.42;;;;;;;26.54;41.20;98793.47;5068414;28;20033;-91
2023/06/10 10:35:08;;;;;;;6.35;2.50;;;;;;;26.61;39.51;98801.81;5028489;28;20017;-94
2023/06/10 10:37:35;;;;;;;4.70;2.50;;;;;;;26.55;39.19;98787.56;5043717;28;20029;-94
2023/06/10 10:40:00;;;;;;;6.45;3.00;;;;;;;26.51;40.93;98786.75;5025594;28;20410;-92
2023/06/10 10:42:26;;;;;;;4.63;2.63;;;;;;;26.62;40.87;98784.06;5043641;28;20021;-92
2023/06/10 10:44:51;;;;;;;3.58;2.97;;;;;;;26.78;40.38;98784.47;5027578;28;20039;-92
2023/06/10 10:47:17;;;;;;;3.55;2.50;;;;;;;26.81;40.16;98782.91;5043416;28;20064;-94
2023/06/10 10:49:43;;;;;;;6.15;3.80;;;;;;;26.85;41.17;98780.16;5044278;28;20380;-93
2023/06/10 10:52:11;;;;;;;8.25;2.80;;;;;;;26.85;39.77;98785.69;5042492;28;20498;-93
2023/06/10 10:54:39;;;;;;;5.65;2.58;;;;;;;26.94;39.33;98789.66;5042166;28;20064;-93
2023/06/10 10:57:18;;;;;;;4.88;2.63;;;;;;;26.81;40.49;98780.13;5043149;28;20388;-93
2023/06/10 10:59:59;;;;;;;5.72;2.80;;;;;;;26.58;40.51;98784.06;5042812;28;20028;-93
2023/06/10 11:02:45;;;;;;;4.53;2.50;;;;;;;26.36;39.27;98765.81;5045277;28;20086;-93
2023/06/10 11:05:15;;;;;;;3.85;2.72;;;;;;;26.48;38.92;98767.41;5046071;28;20509;-93
2023/06/10 11:07:40;;;;;;;4.85;2.38;;;;;;;26.54;38.24;98766.66;5009425;28;20052;-93
2023/06/10 11:10:10;;;;;;;5.82;2.60;;;;;;;26.78;37.62;98769.88;5026779;28;20036;-91
2023/06/10 11:12:46;;;;;;;5.15;2.67;;;;;;;26.77;38.14;98765.53;5027026;28;20029;-92
2023/06/10 11:15:32;;;;;;;3.67;2.55;;;;;;;26.81;38.02;98756.09;5042594;28;20035;-93
2023/06/10 11:18:20;;;;;;;6.60;2.80;;;;;;;27.08;38.08;98757.66;5029043;28;20127;-93
2023/06/10 11:20:48;;;;;;;5.18;2.65;;;;;;;27.02;38.03;98760.06;5027110;28;20490;-92
2023/06/10 11:23:30;;;;;;;4.20;2.67;;;;;;;27.04;39.47;98759.63;5043530;28;20025;-93
2023/06/10 11:26:32;;;;;;;11.13;3.00;;;;;;;27.11;39.45;98765.97;5043346;28;20550;-92
2023/06/10 11:28:57;;;;;;;;;;;;;;;27.14;38.29;98756.09;5026813;28;20090;-93
2023/06/10 11:31:23;;;;;;;4.97;2.80;;;;;;;27.10;38.33;98728.47;5043489;28;19917;-93
2023/06/10 11:33:53;;;;;;;4.55;2.70;;;;;;;27.40;37.37;98735.56;5043147;28;20483;-92
2023/06/10 11:36:18;;;;;;;3.92;2.72;;;;;;;27.37;37.32;98745.47;5012793;28;20024;-93
2023/06/10 11:38:44;;;;;;;4.35;3.03;;;;;;;27.47;37.27;98734.75;5012261;28;20410;-94
2023/06/10 11:41:15;;;;;;;4.07;2.90;;;;;;;27.52;38.14;98721.34;5010861;28;20525;-92